sensor_id;sensor_type;location;lat;lon;timestamp;temperature;humidity
8261;DHT22;64115;50.170;8.242;2023-05-07T06:23:05;14.90;99.90
8261;DHT22;64115;50.170;8.242;2023-05-07T06:25:51;15.30;99.90
8261;DHT22;64115;50.170;8.242;2023-05-07T06:28:26;15.50;99.90
8261;DHT22;64115;50.170;8.242;2023-05-07T06:31:21;15.70;99.90
8261;DHT22;64115;50.170;8.242;2023-05-07T06:33:50;15.70;99.90
8261;DHT22;64115;50.170;8.242;2023-05-07T06:40:13;15.80;99.90
8261;DHT22;64115;50.170;8.242;2023-05-07T07:00:56;16.30;99.90
8261;DHT22;64115;50.170;8.242;2023-05-07T07:07:29;16.40;99.90
8261;DHT22;64115;50.170;8.242;2023-05-07T07:10:40;16.20;99.90
8261;DHT22;64115;50.170;8.242;2023-05-07T07:13:39;16.20;99.90
8261;DHT22;64115;50.170;8.242;2023-05-07T07:16:42;16.20;99.90
8261;DHT22;64115;50.170;8.242;2023-05-07T07:19:22;16.10;99.90
8261;DHT22;64115;50.170;8.242;2023-05-07T07:25:29;16.00;99.90
8261;DHT22;64115;50.170;8.242;2023-05-07T07:28:26;15.90;99.90
8261;DHT22;64115;50.170;8.242;2023-05-07T07:35:13;16.00;99.90
8261;DHT22;64115;50.170;8.242;2023-05-07T07:45:32;16.10;99.90
8261;DHT22;64115;50.170;8.242;2023-05-07T07:48:17;16.10;99.90
8261;DHT22;64115;50.170;8.242;2023-05-07T08:15:26;16.30;99.90
8261;DHT22;64115;50.170;8.242;2023-05-07T08:18:16;16.40;99.90
8261;DHT22;64115;50.170;8.242;2023-05-07T08:21:11;16.60;99.90
8261;DHT22;64115;50.170;8.242;2023-05-07T08:24:27;16.60;99.90
8261;DHT22;64115;50.170;8.242;2023-05-07T08:26:57;16.70;99.90
8261;DHT22;64115;50.170;8.242;2023-05-07T08:29:27;16.70;99.90
8261;DHT22;64115;50.170;8.242;2023-05-07T08:39:08;17.30;99.90
8261;DHT22;64115;50.170;8.242;2023-05-07T08:42:11;17.50;99.90
8261;DHT22;64115;50.170;8.242;2023-05-07T08:44:46;17.70;99.90
8261;DHT22;64115;50.170;8.242;2023-05-07T08:47:13;17.60;99.90
8261;DHT22;64115;50.170;8.242;2023-05-07T08:49:41;17.60;99.90
8261;DHT22;64115;50.170;8.242;2023-05-07T08:52:20;17.70;99.90
8261;DHT22;64115;50.170;8.242;2023-05-07T08:58:13;17.70;99.90
8261;DHT22;64115;50.170;8.242;2023-05-07T09:01:07;17.40;99.90
8261;DHT22;64115;50.170;8.242;2023-05-07T09:03:36;17.40;99.90
8261;DHT22;64115;50.170;8.242;2023-05-07T09:06:15;17.60;99.90
8261;DHT22;64115;50.170;8.242;2023-05-07T09:16:13;18.30;99.90
8261;DHT22;64115;50.170;8.242;2023-05-07T09:19:09;18.30;99.90
8261;DHT22;64115;50.170;8.242;2023-05-07T09:22:04;18.50;99.90
8261;DHT22;64115;50.170;8.242;2023-05-07T09:25:06;18.70;99.90
8261;DHT22;64115;50.170;8.242;2023-05-07T09:34:50;18.30;99.90
8261;DHT22;64115;50.170;8.242;2023-05-07T09:37:32;18.70;99.90
8261;DHT22;64115;50.170;8.242;2023-05-07T09:40:04;18.50;99.90
8261;DHT22;64115;50.170;8.242;2023-05-07T09:43:09;18.30;99.90
8261;DHT22;64115;50.170;8.242;2023-05-07T09:46:08;18.50;99.90
8261;DHT22;64115;50.170;8.242;2023-05-07T10:05:48;20.50;99.90
8261;DHT22;64115;50.170;8.242;2023-05-07T10:09:21;20.70;99.90
8261;DHT22;64115;50.170;8.242;2023-05-07T10:13:10;20.40;99.90
8261;DHT22;64115;50.170;8.242;2023-05-07T10:18:28;20.00;99.90
8261;DHT22;64115;50.170;8.242;2023-05-07T10:24:34;20.00;99.90
8261;DHT22;64115;50.170;8.242;2023-05-07T10:27:37;20.00;99.90
8261;DHT22;64115;50.170;8.242;2023-05-07T10:30:26;20.20;99.90
8261;DHT22;64115;50.170;8.242;2023-05-07T10:36:46;20.20;99.90
8261;DHT22;64115;50.170;8.242;2023-05-07T10:43:13;20.00;99.90
8261;DHT22;64115;50.170;8.242;2023-05-07T10:46:10;20.00;99.90
8261;DHT22;64115;50.170;8.242;2023-05-07T10:49:11;20.30;99.90
8261;DHT22;64115;50.170;8.242;2023-05-07T10:55:19;20.90;99.90
8261;DHT22;64115;50.170;8.242;2023-05-07T10:58:25;20.60;99.90
8261;DHT22;64115;50.170;8.242;2023-05-07T11:01:13;20.60;99.90
8261;DHT22;64115;50.170;8.242;2023-05-07T11:04:19;20.50;99.90
8261;DHT22;64115;50.170;8.242;2023-05-07T11:07:27;20.40;99.90
8261;DHT22;64115;50.170;8.242;2023-05-07T11:10:14;20.30;99.90
8261;DHT22;64115;50.170;8.242;2023-05-07T11:13:03;20.40;99.90
8261;DHT22;64115;50.170;8.242;2023-05-07T11:16:00;19.90;99.90
8261;DHT22;64115;50.170;8.242;2023-05-07T11:18:47;20.10;99.90
8261;DHT22;64115;50.170;8.242;2023-05-07T11:24:48;19.90;99.90
8261;DHT22;64115;50.170;8.242;2023-05-07T11:27:34;19.90;99.90
8261;DHT22;64115;50.170;8.242;2023-05-07T11:30:07;19.60;99.90
8261;DHT22;64115;50.170;8.242;2023-05-07T11:36:30;19.50;99.90
8261;DHT22;64115;50.170;8.242;2023-05-07T11:39:35;19.60;99.90
8261;DHT22;64115;50.170;8.242;2023-05-07T11:45:49;19.60;99.90
8261;DHT22;64115;50.170;8.242;2023-05-07T11:48:50;19.70;99.90
8261;DHT22;64115;50.170;8.242;2023-05-07T11:58:24;19.90;99.90
8261;DHT22;64115;50.170;8.242;2023-05-07T12:07:39;20.20;99.90
8261;DHT22;64115;50.170;8.242;2023-05-07T12:10:50;20.10;99.90
8261;DHT22;64115;50.170;8.242;2023-05-07T12:19:57;20.10;99.90
8261;DHT22;64115;50.170;8.242;2023-05-07T12:22:27;20.10;99.90
8261;DHT22;64115;50.170;8.242;2023-05-07T12:24:59;20.10;99.90
8261;DHT22;64115;50.170;8.242;2023-05-07T12:27:53;19.90;99.90
8261;DHT22;64115;50.170;8.242;2023-05-07T12:30:45;19.70;99.90
8261;DHT22;64115;50.170;8.242;2023-05-07T12:33:16;20.10;99.90
8261;DHT22;64115;50.170;8.242;2023-05-07T12:42:35;20.50;99.90
8261;DHT22;64115;50.170;8.242;2023-05-07T12:49:14;20.70;99.90
8261;DHT22;64115;50.170;8.242;2023-05-07T12:51:47;21.00;99.90
8261;DHT22;64115;50.170;8.242;2023-05-07T12:54:28;20.90;99.90
8261;DHT22;64115;50.170;8.242;2023-05-07T13:03:53;20.20;99.90
8261;DHT22;64115;50.170;8.242;2023-05-07T13:06:21;20.20;99.90
8261;DHT22;64115;50.170;8.242;2023-05-07T13:12:53;20.10;99.90
8261;DHT22;64115;50.170;8.242;2023-05-07T13:16:02;19.90;99.90
8261;DHT22;64115;50.170;8.242;2023-05-07T13:38:54;20.20;99.90
8261;DHT22;64115;50.170;8.242;2023-05-07T13:41:22;20.30;99.90
8261;DHT22;64115;50.170;8.242;2023-05-07T13:44:00;20.20;99.90
8261;DHT22;64115;50.170;8.242;2023-05-07T13:50:01;20.20;99.90
8261;DHT22;64115;50.170;8.242;2023-05-07T14:00:18;21.00;99.90
8261;DHT22;64115;50.170;8.242;2023-05-07T14:03:57;20.60;99.90
8261;DHT22;64115;50.170;8.242;2023-05-07T14:06:48;20.40;99.90
8261;DHT22;64115;50.170;8.242;2023-05-07T14:09:18;20.40;99.90
8261;DHT22;64115;50.170;8.242;2023-05-07T14:12:03;20.50;99.90
8261;DHT22;64115;50.170;8.242;2023-05-07T14:18:20;20.80;99.90
8261;DHT22;64115;50.170;8.242;2023-05-07T14:34:47;20.40;99.90
8261;DHT22;64115;50.170;8.242;2023-05-07T14:37:21;20.40;99.90
8261;DHT22;64115;50.170;8.242;2023-05-07T14:43:27;20.50;99.90
8261;DHT22;64115;50.170;8.242;2023-05-07T14:45:57;20.70;99.90
8261;DHT22;64115;50.170;8.242;2023-05-07T14:48:26;20.70;99.90
8261;DHT22;64115;50.170;8.242;2023-05-07T14:51:13;20.50;99.90
8261;DHT22;64115;50.170;8.242;2023-05-07T14:53:43;20.30;99.90
8261;DHT22;64115;50.170;8.242;2023-05-07T14:56:18;20.20;99.90
8261;DHT22;64115;50.170;8.242;2023-05-07T14:59:22;20.30;99.90
8261;DHT22;64115;50.170;8.242;2023-05-07T15:05:22;20.70;99.90
8261;DHT22;64115;50.170;8.242;2023-05-07T15:08:24;20.80;99.90
8261;DHT22;64115;50.170;8.242;2023-05-07T15:14:51;21.00;99.90
8261;DHT22;64115;50.170;8.242;2023-05-07T15:17:39;20.50;99.90
8261;DHT22;64115;50.170;8.242;2023-05-07T15:44:17;20.60;99.90
8261;DHT22;64115;50.170;8.242;2023-05-07T15:50:28;20.50;99.90
8261;DHT22;64115;50.170;8.242;2023-05-07T15:52:59;20.40;99.90
8261;DHT22;64115;50.170;8.242;2023-05-07T15:56:13;20.20;99.90
8261;DHT22;64115;50.170;8.242;2023-05-07T16:02:36;19.90;99.90
8261;DHT22;64115;50.170;8.242;2023-05-07T16:05:19;19.60;99.90
8261;DHT22;64115;50.170;8.242;2023-05-07T16:07:55;19.40;99.90
8261;DHT22;64115;50.170;8.242;2023-05-07T16:10:30;19.40;99.90
8261;DHT22;64115;50.170;8.242;2023-05-07T16:13:15;19.30;99.90
8261;DHT22;64115;50.170;8.242;2023-05-07T16:16:44;19.20;99.90
8261;DHT22;64115;50.170;8.242;2023-05-07T16:22:48;18.90;99.90
8261;DHT22;64115;50.170;8.242;2023-05-07T16:25:15;18.80;99.90
8261;DHT22;64115;50.170;8.242;2023-05-07T16:27:42;18.70;99.90
8261;DHT22;64115;50.170;8.242;2023-05-07T16:30:19;18.70;99.90
8261;DHT22;64115;50.170;8.242;2023-05-07T16:32:48;18.50;99.90
8261;DHT22;64115;50.170;8.242;2023-05-07T16:42:20;18.40;99.90
8261;DHT22;64115;50.170;8.242;2023-05-07T16:44:55;18.40;99.90
8261;DHT22;64115;50.170;8.242;2023-05-07T16:50:49;18.20;99.90
8261;DHT22;64115;50.170;8.242;2023-05-07T16:53:50;18.10;99.90
8261;DHT22;64115;50.170;8.242;2023-05-07T16:56:32;17.90;99.90
8261;DHT22;64115;50.170;8.242;2023-05-07T16:59:17;17.70;99.90
8261;DHT22;64115;50.170;8.242;2023-05-07T17:11:34;17.00;99.90
8261;DHT22;64115;50.170;8.242;2023-05-07T17:31:18;15.20;99.90
8261;DHT22;64115;50.170;8.242;2023-05-07T20:20:15;13.80;99.90
8261;DHT22;64115;50.170;8.242;2023-05-07T20:22:42;13.80;99.90
8261;DHT22;64115;50.170;8.242;2023-05-07T20:25:11;13.90;99.90
8261;DHT22;64115;50.170;8.242;2023-05-07T20:27:56;13.90;99.90
8261;DHT22;64115;50.170;8.242;2023-05-07T20:30:44;13.80;99.90
8261;DHT22;64115;50.170;8.242;2023-05-07T20:33:25;13.80;99.90
8261;DHT22;64115;50.170;8.242;2023-05-07T20:36:00;13.80;99.90
8261;DHT22;64115;50.170;8.242;2023-05-07T20:39:00;13.80;99.90
8261;DHT22;64115;50.170;8.242;2023-05-07T20:41:50;13.80;99.90
8261;DHT22;64115;50.170;8.242;2023-05-07T20:47:33;13.70;99.90
8261;DHT22;64115;50.170;8.242;2023-05-07T20:50:07;13.60;99.90
8261;DHT22;64115;50.170;8.242;2023-05-07T20:52:54;13.60;99.90
8261;DHT22;64115;50.170;8.242;2023-05-07T20:55:21;13.60;99.90
8261;DHT22;64115;50.170;8.242;2023-05-07T20:58:14;13.50;99.90
8261;DHT22;64115;50.170;8.242;2023-05-07T21:00:57;13.50;99.90
8261;DHT22;64115;50.170;8.242;2023-05-07T21:03:27;13.40;99.90
8261;DHT22;64115;50.170;8.242;2023-05-07T21:06:03;13.40;99.90
8261;DHT22;64115;50.170;8.242;2023-05-07T21:08:47;13.40;99.90
8261;DHT22;64115;50.170;8.242;2023-05-07T21:11:18;13.40;99.90
8261;DHT22;64115;50.170;8.242;2023-05-07T21:13:53;13.40;99.90
8261;DHT22;64115;50.170;8.242;2023-05-07T21:16:26;13.40;99.90
8261;DHT22;64115;50.170;8.242;2023-05-07T21:19:07;13.30;99.90
8261;DHT22;64115;50.170;8.242;2023-05-07T21:21:35;13.30;99.90
8261;DHT22;64115;50.170;8.242;2023-05-07T21:24:21;13.20;99.90
8261;DHT22;64115;50.170;8.242;2023-05-07T21:26:52;13.20;99.90
8261;DHT22;64115;50.170;8.242;2023-05-07T21:29:40;13.20;99.90
8261;DHT22;64115;50.170;8.242;2023-05-07T21:32:13;13.20;99.90
8261;DHT22;64115;50.170;8.242;2023-05-07T21:34:41;13.10;99.90
8261;DHT22;64115;50.170;8.242;2023-05-07T21:37:17;13.10;99.90
8261;DHT22;64115;50.170;8.242;2023-05-07T21:40:33;13.10;99.90
8261;DHT22;64115;50.170;8.242;2023-05-07T21:43:00;13.10;99.90
8261;DHT22;64115;50.170;8.242;2023-05-07T21:45:31;13.10;99.90
8261;DHT22;64115;50.170;8.242;2023-05-07T21:48:37;13.10;99.90
8261;DHT22;64115;50.170;8.242;2023-05-07T21:51:44;13.10;99.90
8261;DHT22;64115;50.170;8.242;2023-05-07T21:54:26;13.10;99.90
8261;DHT22;64115;50.170;8.242;2023-05-07T21:57:00;13.10;99.90
8261;DHT22;64115;50.170;8.242;2023-05-07T21:59:33;13.20;99.90
8261;DHT22;64115;50.170;8.242;2023-05-07T22:02:15;13.20;99.90
8261;DHT22;64115;50.170;8.242;2023-05-07T22:04:44;13.20;99.90
8261;DHT22;64115;50.170;8.242;2023-05-07T22:07:22;13.20;99.90
8261;DHT22;64115;50.170;8.242;2023-05-07T22:09:52;13.30;99.90
8261;DHT22;64115;50.170;8.242;2023-05-07T22:12:24;13.30;99.90
8261;DHT22;64115;50.170;8.242;2023-05-07T22:14:58;13.20;99.90
8261;DHT22;64115;50.170;8.242;2023-05-07T22:17:27;13.20;99.90
8261;DHT22;64115;50.170;8.242;2023-05-07T22:19:55;13.20;99.90
8261;DHT22;64115;50.170;8.242;2023-05-07T22:22:27;13.20;99.90
8261;DHT22;64115;50.170;8.242;2023-05-07T22:25:05;13.10;99.90
8261;DHT22;64115;50.170;8.242;2023-05-07T22:27:57;13.00;99.90
8261;DHT22;64115;50.170;8.242;2023-05-07T22:30:31;12.90;99.90
8261;DHT22;64115;50.170;8.242;2023-05-07T22:33:11;12.90;99.90
8261;DHT22;64115;50.170;8.242;2023-05-07T22:38:53;13.00;99.90
8261;DHT22;64115;50.170;8.242;2023-05-07T22:56:14;12.80;99.90
8261;DHT22;64115;50.170;8.242;2023-05-07T22:59:29;12.80;99.90
